createdAt,value
2023-09-20T00:01:27.360Z,86001.75
2023-09-20T00:03:53.598Z,86006.88
2023-09-20T00:06:19.766Z,86003.97
2023-09-20T00:08:45.926Z,86005.63
2023-09-20T00:11:12.158Z,86001.94
2023-09-20T00:13:38.380Z,85999.78
2023-09-20T00:16:04.638Z,86006.91
2023-09-20T00:18:30.803Z,86001.50
2023-09-20T00:20:56.978Z,86008.03
2023-09-20T00:23:23.222Z,86006.31
2023-09-20T00:25:49.409Z,85997.22
2023-09-20T00:28:15.561Z,85995.78
2023-09-20T00:30:41.751Z,85997.78
2023-09-20T00:33:07.963Z,85991.69
2023-09-20T00:35:34.176Z,85997.94
2023-09-20T00:38:00.395Z,86001.47
2023-09-20T00:40:26.579Z,85999.19
2023-09-20T00:42:52.855Z,86000.00
2023-09-20T00:45:19.033Z,85991.09
2023-09-20T00:47:45.233Z,85998.66
2023-09-20T00:50:11.438Z,85987.69
2023-09-20T00:52:37.630Z,85990.81
2023-09-20T00:55:04.122Z,85988.81
2023-09-20T00:57:30.362Z,85991.25
2023-09-20T00:59:56.537Z,85981.06
2023-09-20T01:02:22.800Z,85987.75
2023-09-20T01:04:49.096Z,85987.75
2023-09-20T01:07:15.263Z,85990.66
2023-09-20T01:09:41.453Z,85980.97
2023-09-20T01:12:07.631Z,85969.91
2023-09-20T01:14:33.824Z,85974.25
2023-09-20T01:17:00.146Z,85979.84
2023-09-20T01:19:26.391Z,85975.78
2023-09-20T01:21:52.561Z,85958.38
2023-09-20T01:24:18.742Z,85955.63
2023-09-20T01:26:44.894Z,85957.44
2023-09-20T01:29:11.195Z,85953.13
2023-09-20T01:31:37.468Z,85958.84
2023-09-20T01:34:03.647Z,85961.28
2023-09-20T01:36:29.804Z,85958.06
2023-09-20T01:38:55.993Z,85956.28
2023-09-20T01:41:22.194Z,85967.41
2023-09-20T01:43:48.368Z,85965.19
2023-09-20T01:46:14.536Z,85962.19
2023-09-20T01:48:41.018Z,85958.53
2023-09-20T01:51:07.413Z,85952.81
2023-09-20T01:53:33.598Z,85951.41
2023-09-20T01:55:59.860Z,85954.53
2023-09-20T01:58:26.043Z,85957.66
2023-09-20T02:00:52.507Z,85958.03
2023-09-20T02:03:19.803Z,85957.78
2023-09-20T02:05:47.191Z,85952.38
2023-09-20T02:08:13.385Z,85958.19
2023-09-20T02:10:39.648Z,85959.75
2023-09-20T02:13:05.817Z,85955.91
2023-09-20T02:15:32.010Z,85941.88
2023-09-20T02:17:58.179Z,85940.44
2023-09-20T02:20:24.418Z,85946.13
2023-09-20T02:22:50.606Z,85938.25
2023-09-20T02:25:16.779Z,85934.09
2023-09-20T02:27:42.944Z,85944.56
2023-09-20T02:30:09.114Z,85945.72
2023-09-20T02:32:35.374Z,85944.00
2023-09-20T02:35:01.635Z,85941.72
2023-09-20T02:37:27.819Z,85941.84
2023-09-20T02:39:54.096Z,85947.66
2023-09-20T02:42:20.262Z,85940.06
2023-09-20T02:44:46.441Z,85946.44
2023-09-20T02:47:12.654Z,85949.13
2023-09-20T02:49:38.816Z,85947.59
2023-09-20T02:52:04.989Z,85947.75
2023-09-20T02:54:31.149Z,85943.84
2023-09-20T02:56:57.313Z,85946.28
2023-09-20T02:59:23.507Z,85951.25
2023-09-20T03:01:49.748Z,85955.72
2023-09-20T03:04:16.009Z,85955.09
2023-09-20T03:06:42.247Z,85943.41
2023-09-20T03:09:08.418Z,85943.34
2023-09-20T03:11:34.611Z,85935.31
2023-09-20T03:14:00.839Z,85939.44
2023-09-20T03:16:27.038Z,85939.00
2023-09-20T03:18:53.255Z,85932.84
2023-09-20T03:21:19.546Z,85934.69
2023-09-20T03:23:45.801Z,85942.63
2023-09-20T03:26:11.979Z,85928.72
2023-09-20T03:28:38.169Z,85939.69
2023-09-20T03:31:04.352Z,85938.00
2023-09-20T03:33:30.525Z,85930.81
2023-09-20T03:35:56.727Z,85921.22
2023-09-20T03:38:22.977Z,85920.00
2023-09-20T03:40:49.219Z,85926.50
2023-09-20T03:43:15.430Z,85914.84
2023-09-20T03:45:41.629Z,85925.28
2023-09-20T03:48:07.881Z,85921.41
2023-09-20T03:50:34.202Z,85923.72
2023-09-20T03:53:00.423Z,85923.31
2023-09-20T03:55:26.610Z,85927.56
2023-09-20T03:57:52.814Z,85921.88
2023-09-20T04:00:18.973Z,85921.38
2023-09-20T04:02:45.268Z,85911.66
2023-09-20T04:05:11.546Z,85914.00
2023-09-20T04:07:37.733Z,85916.00
2023-09-20T04:10:06.059Z,85911.97
2023-09-20T04:12:32.330Z,85914.59
2023-09-20T04:14:58.484Z,85905.28
2023-09-20T04:17:24.657Z,85898.47
2023-09-20T04:19:50.901Z,85887.78
2023-09-20T04:22:17.098Z,85886.47
2023-09-20T04:24:43.265Z,85885.44
2023-09-20T04:27:09.454Z,85878.53
2023-09-20T04:29:35.635Z,85882.09
2023-09-20T04:32:01.861Z,85883.41
2023-09-20T04:34:28.038Z,85878.75
2023-09-20T04:36:54.201Z,85887.38
2023-09-20T04:39:20.362Z,85889.63
2023-09-20T04:41:46.509Z,85888.84
2023-09-20T04:44:12.726Z,85894.31
2023-09-20T04:46:38.897Z,85889.13
2023-09-20T04:49:05.079Z,85890.94
2023-09-20T04:51:31.236Z,85886.75
2023-09-20T04:53:57.387Z,85885.63
2023-09-20T04:56:23.570Z,85883.38
2023-09-20T04:58:49.749Z,85882.13
2023-09-20T05:01:16.050Z,85875.22
2023-09-20T05:03:42.400Z,85876.25
2023-09-20T05:06:08.713Z,85874.69
2023-09-20T05:08:34.957Z,85872.88
2023-09-20T05:11:01.335Z,85863.63
2023-09-20T05:13:27.514Z,85876.41
2023-09-20T05:15:53.722Z,85863.03
2023-09-20T05:18:19.979Z,85861.94
2023-09-20T05:20:46.352Z,85856.97
2023-09-20T05:23:12.647Z,85858.03
2023-09-20T05:25:38.853Z,85863.69
2023-09-20T05:28:05.028Z,85855.44
2023-09-20T05:30:31.207Z,85857.63
2023-09-20T05:32:57.434Z,85858.53
2023-09-20T05:35:23.802Z,85856.47
2023-09-20T05:37:50.016Z,85860.13
2023-09-20T05:40:16.177Z,85857.75
2023-09-20T05:42:42.335Z,85857.78
2023-09-20T05:45:08.537Z,85853.41
2023-09-20T05:47:34.805Z,85862.31
2023-09-20T05:50:01.167Z,85854.63
2023-09-20T05:52:27.407Z,85860.81
2023-09-20T05:54:53.756Z,85855.44
2023-09-20T05:57:19.951Z,85851.63
2023-09-20T05:59:46.184Z,85845.03
2023-09-20T06:02:12.419Z,85851.03
2023-09-20T06:04:38.613Z,85847.00
2023-09-20T06:07:04.762Z,85848.28
2023-09-20T06:09:30.923Z,85837.53
2023-09-20T06:11:57.115Z,85846.50
2023-09-20T06:14:23.386Z,85846.97
2023-09-20T06:16:49.633Z,85854.00
2023-09-20T06:19:16.045Z,85844.50
2023-09-20T06:21:42.586Z,85846.63
2023-09-20T06:24:08.796Z,85845.53
2023-09-20T06:26:34.992Z,85838.78
2023-09-20T06:29:01.240Z,85843.59
2023-09-20T06:31:27.452Z,85845.66
2023-09-20T06:33:53.700Z,85846.00
2023-09-20T06:36:19.905Z,85842.16
2023-09-20T06:38:46.099Z,85836.31
2023-09-20T06:41:12.351Z,85838.41
2023-09-20T06:43:38.565Z,85838.91
2023-09-20T06:46:04.781Z,85846.41
2023-09-20T06:48:31.043Z,85840.59
2023-09-20T06:50:57.264Z,85848.34
2023-09-20T06:53:23.462Z,85848.78
2023-09-20T06:55:49.712Z,85845.41
2023-09-20T06:58:20.609Z,85851.09
2023-09-20T07:00:47.300Z,85844.00
2023-09-20T07:03:13.608Z,85843.34
2023-09-20T07:05:39.880Z,85844.41
2023-09-20T07:08:06.235Z,85847.88
2023-09-20T07:10:35.484Z,85843.91
2023-09-20T07:13:01.660Z,85843.69
2023-09-20T07:15:27.807Z,85841.56
2023-09-20T07:17:54.040Z,85837.91
2023-09-20T07:20:20.337Z,85842.91
2023-09-20T07:22:46.543Z,85847.03
2023-09-20T07:25:12.706Z,85843.53
2023-09-20T07:27:38.876Z,85832.88
2023-09-20T07:30:05.045Z,85835.28
2023-09-20T07:32:31.304Z,85838.34
2023-09-20T07:34:57.612Z,85829.31
2023-09-20T07:37:23.766Z,85833.63
2023-09-20T07:39:50.038Z,85831.88
2023-09-20T07:42:16.280Z,85830.28
2023-09-20T07:44:42.508Z,85829.50
2023-09-20T07:47:08.792Z,85832.66
2023-09-20T07:49:35.104Z,85822.06
2023-09-20T07:52:01.283Z,85821.50
2023-09-20T07:54:27.455Z,85817.25
2023-09-20T07:56:53.887Z,85815.84
2023-09-20T07:59:20.203Z,85811.63
2023-09-20T08:01:46.426Z,85807.97
2023-09-20T08:04:12.680Z,85806.94
2023-09-20T08:06:38.845Z,85804.13
2023-09-20T08:09:05.085Z,85805.72
2023-09-20T08:11:31.296Z,85814.38
2023-09-20T08:13:57.515Z,85806.78
2023-09-20T08:16:26.818Z,85797.22
2023-09-20T08:18:57.542Z,85794.75
2023-09-20T08:21:23.793Z,85794.03
2023-09-20T08:23:50.054Z,85786.09
2023-09-20T08:26:16.336Z,85793.31
2023-09-20T08:28:42.744Z,85786.59
2023-09-20T08:31:09.289Z,85785.44
2023-09-20T08:33:35.526Z,85791.44
2023-09-20T08:36:01.712Z,85780.94
2023-09-20T08:38:27.957Z,85787.66
2023-09-20T08:40:54.191Z,85781.94
2023-09-20T08:43:20.371Z,85786.94
2023-09-20T08:45:46.531Z,85778.41
2023-09-20T08:48:12.773Z,85782.06
2023-09-20T08:50:39.061Z,85782.03
2023-09-20T08:53:05.233Z,85780.16
2023-09-20T08:55:31.390Z,85782.91
2023-09-20T08:57:57.575Z,85774.47
2023-09-20T09:00:23.951Z,85777.50
2023-09-20T09:02:50.317Z,85776.75
2023-09-20T09:05:16.596Z,85782.19
2023-09-20T09:07:42.784Z,85780.59
2023-09-20T09:10:08.959Z,85782.38
2023-09-20T09:12:35.737Z,85790.91
2023-09-20T09:15:01.928Z,85786.78
2023-09-20T09:17:28.225Z,85775.13
2023-09-20T09:19:54.420Z,85772.53
2023-09-20T09:22:20.617Z,85780.63
2023-09-20T09:24:46.786Z,85779.13
2023-09-20T09:27:12.959Z,85775.03
2023-09-20T09:29:39.176Z,85769.00
2023-09-20T09:32:05.471Z,85766.25
2023-09-20T09:34:31.784Z,85771.66
2023-09-20T09:36:57.993Z,85767.69
2023-09-20T09:39:34.250Z,85762.28
2023-09-20T09:42:01.350Z,85757.50
2023-09-20T09:44:27.521Z,85755.09
2023-09-20T09:46:53.741Z,85758.28
2023-09-20T09:49:19.922Z,85748.78
2023-09-20T09:51:46.086Z,85751.13
2023-09-20T09:54:12.272Z,85742.03
2023-09-20T09:56:38.475Z,85722.75
2023-09-20T09:59:04.672Z,85718.69
2023-09-20T10:01:30.997Z,85723.19
2023-09-20T10:03:57.464Z,85728.97
2023-09-20T10:06:23.701Z,85719.75
2023-09-20T10:08:49.895Z,85720.75
2023-09-20T10:11:16.126Z,85713.38
2023-09-20T10:13:42.321Z,85717.19
2023-09-20T10:16:08.530Z,85718.34
2023-09-20T10:18:34.772Z,85708.88
2023-09-20T10:21:00.984Z,85707.78
2023-09-20T10:23:27.284Z,85705.69
2023-09-20T10:25:53.490Z,85697.84
2023-09-20T10:28:19.654Z,85694.88
2023-09-20T10:30:45.819Z,85690.53
2023-09-20T10:33:12.090Z,85689.50
2023-09-20T10:35:38.351Z,85689.03
2023-09-20T10:38:04.503Z,85688.38
2023-09-20T10:40:30.680Z,85697.72
2023-09-20T10:42:56.869Z,85689.47
2023-09-20T10:45:23.070Z,85689.97
2023-09-20T10:47:49.317Z,85686.47
2023-09-20T10:50:15.581Z,85686.88
2023-09-20T10:52:41.858Z,85685.41
2023-09-20T10:55:08.022Z,85668.56
2023-09-20T10:57:34.204Z,85676.72
2023-09-20T11:00:00.466Z,85676.53
2023-09-20T11:02:26.690Z,85682.41
2023-09-20T11:04:52.896Z,85677.56
2023-09-20T11:07:19.134Z,85676.97
2023-09-20T11:09:45.288Z,85671.41
2023-09-20T11:12:11.445Z,85667.34
2023-09-20T11:14:40.169Z,85663.78
2023-09-20T11:17:07.744Z,85662.16
2023-09-20T11:19:33.928Z,85665.75
2023-09-20T11:22:00.114Z,85662.81
2023-09-20T11:24:26.270Z,85660.16
2023-09-20T11:26:52.476Z,85659.22
2023-09-20T11:29:18.704Z,85656.81
2023-09-20T11:31:44.882Z,85651.94
2023-09-20T11:34:11.078Z,85650.41
2023-09-20T11:36:37.246Z,85649.09
2023-09-20T11:39:03.405Z,85655.06
2023-09-20T11:41:29.571Z,85649.38
2023-09-20T11:43:55.748Z,85654.78
2023-09-20T11:46:21.982Z,85648.28
2023-09-20T11:48:48.218Z,85654.34
2023-09-20T11:51:14.414Z,85654.59
2023-09-20T11:53:40.594Z,85647.59
2023-09-20T11:56:06.792Z,85647.16
2023-09-20T11:58:32.959Z,85654.34
2023-09-20T12:00:59.184Z,85650.94
2023-09-20T12:03:25.582Z,85649.75
2023-09-20T12:05:51.845Z,85654.91
2023-09-20T12:08:18.139Z,85643.94
2023-09-20T12:10:44.414Z,85645.78
2023-09-20T12:13:10.588Z,85643.41
2023-09-20T12:15:36.733Z,85648.16
2023-09-20T12:18:03.035Z,85641.38
2023-09-20T12:20:29.634Z,85637.31
2023-09-20T12:22:55.924Z,85632.13
2023-09-20T12:25:22.163Z,85622.84
2023-09-20T12:27:48.424Z,85616.16
2023-09-20T12:30:14.606Z,85617.50
2023-09-20T12:32:40.826Z,85619.88
2023-09-20T12:35:07.061Z,85615.19
2023-09-20T12:37:33.213Z,85607.88
2023-09-20T12:39:59.480Z,85603.75
2023-09-20T12:42:25.640Z,85595.59
2023-09-20T12:44:51.850Z,85601.06
2023-09-20T12:47:18.115Z,85594.44
2023-09-20T12:49:44.359Z,85597.25
2023-09-20T12:52:10.527Z,85588.28
2023-09-20T12:54:36.695Z,85588.53
2023-09-20T12:57:02.882Z,85581.19
2023-09-20T12:59:29.219Z,85575.75
2023-09-20T13:01:55.437Z,85564.06
2023-09-20T13:04:21.639Z,85563.41
2023-09-20T13:06:47.868Z,85567.88
2023-09-20T13:09:14.032Z,85562.41
2023-09-20T13:11:40.241Z,85564.63
2023-09-20T13:14:06.453Z,85568.56
2023-09-20T13:16:32.648Z,85558.88
2023-09-20T13:18:58.840Z,85554.06
2023-09-20T13:21:25.010Z,85554.50
2023-09-20T13:23:51.195Z,85544.94
2023-09-20T13:26:17.448Z,85552.66
2023-09-20T13:28:43.619Z,85544.66
2023-09-20T13:31:09.808Z,85536.09
2023-09-20T13:33:36.049Z,85542.09
2023-09-20T13:36:02.323Z,85535.50
2023-09-20T13:38:28.604Z,85541.63
2023-09-20T13:40:54.782Z,85537.66
2023-09-20T13:43:20.953Z,85535.84
2023-09-20T13:45:47.203Z,85529.78
2023-09-20T13:48:13.682Z,85535.03
2023-09-20T13:50:40.159Z,85528.72
2023-09-20T13:53:06.355Z,85529.25
2023-09-20T13:55:33.114Z,85531.69
2023-09-20T13:57:59.358Z,85532.22
2023-09-20T14:00:25.565Z,85526.44
2023-09-20T14:02:51.773Z,85528.00
2023-09-20T14:05:18.051Z,85532.59
2023-09-20T14:07:44.226Z,85532.38
2023-09-20T14:10:10.389Z,85527.03
2023-09-20T14:12:36.552Z,85526.94
2023-09-20T14:15:02.700Z,85529.88
2023-09-20T14:17:28.896Z,85525.72
2023-09-20T14:19:55.091Z,85524.25
2023-09-20T14:22:21.256Z,85520.34
2023-09-20T14:24:47.431Z,85519.06
2023-09-20T14:27:13.656Z,85514.09
2023-09-20T14:29:39.866Z,85513.41
2023-09-20T14:32:06.067Z,85511.94
2023-09-20T14:34:32.218Z,85516.38
2023-09-20T14:36:58.390Z,85515.72
2023-09-20T14:39:24.547Z,85507.50
2023-09-20T14:41:50.787Z,85513.63
2023-09-20T14:44:17.107Z,85513.56
2023-09-20T14:46:43.346Z,85508.41
2023-09-20T14:49:09.516Z,85509.03
2023-09-20T14:51:35.684Z,85509.75
2023-09-20T14:54:01.886Z,85504.22
2023-09-20T14:56:29.072Z,85496.53
2023-09-20T14:58:56.486Z,85500.97
2023-09-20T15:01:22.648Z,85508.56
2023-09-20T15:03:48.887Z,85504.59
2023-09-20T15:06:15.136Z,85503.19
2023-09-20T15:08:41.391Z,85498.59
2023-09-20T15:11:07.616Z,85499.44
2023-09-20T15:13:33.799Z,85489.88
2023-09-20T15:15:59.980Z,85484.41
2023-09-20T15:18:26.271Z,85477.13
2023-09-20T15:20:52.614Z,85476.69
2023-09-20T15:23:18.832Z,85471.63
2023-09-20T15:25:44.987Z,85473.03
2023-09-20T15:28:11.144Z,85474.94
2023-09-20T15:30:37.306Z,85477.84
2023-09-20T15:33:03.634Z,85468.66
2023-09-20T15:35:29.879Z,85463.25
2023-09-20T15:37:56.146Z,85460.63
2023-09-20T15:40:22.305Z,85454.19
2023-09-20T15:42:48.671Z,85453.47
2023-09-20T15:45:14.910Z,85451.16
2023-09-20T15:47:41.314Z,85444.81
2023-09-20T15:50:07.604Z,85446.34
2023-09-20T15:52:33.772Z,85441.16
2023-09-20T15:54:59.919Z,85439.38
2023-09-20T15:57:26.084Z,85440.16
2023-09-20T15:59:52.260Z,85423.41
2023-09-20T16:02:18.566Z,85424.34
2023-09-20T16:04:44.746Z,85426.47
2023-09-20T16:07:10.916Z,85428.53
2023-09-20T16:09:37.068Z,85433.78
2023-09-20T16:12:03.562Z,85441.44
2023-09-20T16:14:29.921Z,85442.16
2023-09-20T16:16:56.157Z,85441.03
2023-09-20T16:19:22.709Z,85442.34
2023-09-20T16:21:48.952Z,85440.53
2023-09-20T16:24:15.125Z,85446.03
2023-09-20T16:26:41.346Z,85441.09
2023-09-20T16:29:07.788Z,85442.16
2023-09-20T16:31:33.997Z,85438.66
2023-09-20T16:34:01.510Z,85432.06
2023-09-20T16:36:27.860Z,85445.97
2023-09-20T16:38:54.061Z,85438.56
2023-09-20T16:41:20.329Z,85442.81
2023-09-20T16:43:46.521Z,85447.72
2023-09-20T16:46:12.791Z,85447.88
2023-09-20T16:48:39.104Z,85444.47
2023-09-20T16:51:05.436Z,85449.94
2023-09-20T16:53:31.733Z,85446.59
2023-09-20T16:55:57.918Z,85455.16
2023-09-20T16:58:24.092Z,85447.44
2023-09-20T17:00:50.273Z,85457.38
2023-09-20T17:03:16.635Z,85456.97
2023-09-20T17:05:42.986Z,85460.31
2023-09-20T17:08:09.135Z,85462.31
2023-09-20T17:10:35.290Z,85462.16
2023-09-20T17:13:01.462Z,85458.56
2023-09-20T17:15:27.656Z,85452.19
2023-09-20T17:17:53.914Z,85451.38
2023-09-20T17:20:20.093Z,85454.88
2023-09-20T17:22:46.269Z,85453.59
2023-09-20T17:25:12.428Z,85457.66
2023-09-20T17:27:38.597Z,85453.34
2023-09-20T17:30:04.835Z,85462.94
2023-09-20T17:32:31.092Z,85458.50
2023-09-20T17:34:57.296Z,85456.38
2023-09-20T17:37:23.443Z,85460.88
2023-09-20T17:39:49.629Z,85458.41
2023-09-20T17:42:15.845Z,85454.66
2023-09-20T17:44:42.101Z,85452.59
2023-09-20T17:47:08.270Z,85447.88
2023-09-20T17:49:34.441Z,85460.63
2023-09-20T17:52:02.212Z,85449.75
2023-09-20T17:54:30.637Z,85445.72
2023-09-20T17:56:56.836Z,85449.09
2023-09-20T17:59:23.094Z,85446.50
2023-09-20T18:01:49.283Z,85443.56
2023-09-20T18:04:15.496Z,85441.72
2023-09-20T18:06:41.718Z,85445.06
2023-09-20T18:09:07.875Z,85439.13
2023-09-20T18:11:34.247Z,85440.50
2023-09-20T18:14:00.426Z,85445.88
2023-09-20T18:16:27.634Z,85438.72
2023-09-20T18:18:53.962Z,85431.50
2023-09-20T18:21:20.182Z,85439.56
2023-09-20T18:23:46.440Z,85436.41
2023-09-20T18:26:12.620Z,85441.78
2023-09-20T18:28:38.774Z,85436.56
2023-09-20T18:31:04.947Z,85433.84
2023-09-20T18:33:31.212Z,85434.34
2023-09-20T18:35:57.420Z,85437.53
2023-09-20T18:38:23.712Z,85435.09
2023-09-20T18:40:50.076Z,85435.41
2023-09-20T18:43:16.224Z,85442.22
2023-09-20T18:45:42.399Z,85454.34
2023-09-20T18:48:08.709Z,85445.69
2023-09-20T18:50:35.207Z,85454.75
2023-09-20T18:53:01.366Z,85457.66
2023-09-20T18:55:27.553Z,85464.25
2023-09-20T18:57:53.748Z,85458.31
2023-09-20T19:00:19.958Z,85457.41
2023-09-20T19:02:46.262Z,85459.69
2023-09-20T19:05:12.524Z,85469.50
2023-09-20T19:07:38.710Z,85467.38
2023-09-20T19:10:04.882Z,85471.72
2023-09-20T19:12:31.073Z,85478.72
2023-09-20T19:14:57.282Z,85485.38
2023-09-20T19:17:23.537Z,85468.78
2023-09-20T19:19:49.709Z,85466.53
2023-09-20T19:22:15.861Z,85474.28
2023-09-20T19:24:42.025Z,85474.03
2023-09-20T19:27:08.205Z,85470.94
2023-09-20T19:29:34.388Z,85472.75
2023-09-20T19:32:00.616Z,85466.94
2023-09-20T19:34:26.813Z,85464.28
2023-09-20T19:36:53.013Z,85470.94
2023-09-20T19:39:19.173Z,85476.03
2023-09-20T19:41:45.382Z,85473.63
2023-09-20T19:44:11.572Z,85477.03
2023-09-20T19:46:38.247Z,85472.75
2023-09-20T19:49:04.438Z,85463.19
2023-09-20T19:51:30.607Z,85474.31
2023-09-20T19:53:56.873Z,85477.66
2023-09-20T19:56:23.121Z,85473.81
2023-09-20T19:58:49.320Z,85477.03
2023-09-20T20:01:15.501Z,85478.06
2023-09-20T20:03:41.796Z,85479.91
2023-09-20T20:06:08.153Z,85479.28
2023-09-20T20:08:34.347Z,85479.34
2023-09-20T20:11:00.528Z,85470.75
2023-09-20T20:13:26.723Z,85479.34
2023-09-20T20:15:52.941Z,85466.41
2023-09-20T20:18:19.225Z,85468.22
2023-09-20T20:20:45.433Z,85468.31
2023-09-20T20:23:11.693Z,85467.56
2023-09-20T20:25:37.951Z,85467.16
2023-09-20T20:28:04.115Z,85465.22
2023-09-20T20:30:30.275Z,85455.78
2023-09-20T20:32:56.553Z,85460.34
2023-09-20T20:35:23.531Z,85457.50
2023-09-20T20:37:49.698Z,85457.41
2023-09-20T20:40:15.910Z,85462.47
2023-09-20T20:42:42.117Z,85449.78
2023-09-20T20:45:08.318Z,85459.38
2023-09-20T20:47:34.523Z,85453.72
2023-09-20T20:50:00.746Z,85447.72
2023-09-20T20:52:26.928Z,85447.38
2023-09-20T20:54:53.095Z,85452.03
2023-09-20T20:57:19.250Z,85454.75
2023-09-20T20:59:45.441Z,85444.13
2023-09-20T21:02:11.670Z,85444.16
2023-09-20T21:04:37.856Z,85447.50
2023-09-20T21:07:04.348Z,85448.06
2023-09-20T21:09:30.587Z,85442.81
2023-09-20T21:11:56.943Z,85435.19
2023-09-20T21:14:23.163Z,85428.44
2023-09-20T21:16:49.317Z,85425.16
2023-09-20T21:19:15.606Z,85420.72
2023-09-20T21:21:41.861Z,85420.19
2023-09-20T21:24:08.152Z,85414.63
2023-09-20T21:26:34.410Z,85415.88
2023-09-20T21:29:00.633Z,85420.81
2023-09-20T21:31:26.823Z,85412.16
2023-09-20T21:33:53.180Z,85420.28
2023-09-20T21:36:19.425Z,85418.19
2023-09-20T21:38:45.855Z,85413.13
2023-09-20T21:41:12.245Z,85421.47
2023-09-20T21:43:38.393Z,85425.94
2023-09-20T21:46:04.560Z,85420.13
2023-09-20T21:48:30.811Z,85419.06
2023-09-20T21:50:57.076Z,85412.00
2023-09-20T21:53:23.285Z,85401.41
2023-09-20T21:55:49.481Z,85410.88
2023-09-20T21:58:15.628Z,85405.44
2023-09-20T22:00:42.108Z,85410.16
2023-09-20T22:03:08.379Z,85414.22
2023-09-20T22:05:34.764Z,85409.56
2023-09-20T22:08:01.073Z,85403.06
2023-09-20T22:10:27.275Z,85417.03
2023-09-20T22:12:53.459Z,85406.75
2023-09-20T22:15:19.629Z,85407.38
2023-09-20T22:17:45.938Z,85407.78
2023-09-20T22:20:12.196Z,85406.69
2023-09-20T22:22:38.414Z,85404.69
2023-09-20T22:25:04.582Z,85402.94
2023-09-20T22:27:30.860Z,85401.53
2023-09-20T22:29:57.042Z,85399.06
2023-09-20T22:32:23.247Z,85394.88
2023-09-20T22:34:49.438Z,85393.44
2023-09-20T22:37:15.590Z,85393.03
2023-09-20T22:39:41.777Z,85392.00
2023-09-20T22:42:07.971Z,85386.66
2023-09-20T22:44:34.264Z,85384.44
2023-09-20T22:47:00.499Z,85377.66
2023-09-20T22:49:26.772Z,85383.81
2023-09-20T22:51:52.957Z,85378.75
2023-09-20T22:54:19.112Z,85377.25
2023-09-20T22:56:45.333Z,85366.50
2023-09-20T22:59:11.539Z,85371.94
2023-09-20T23:01:37.702Z,85368.22
2023-09-20T23:04:04.009Z,85376.78
2023-09-20T23:06:30.283Z,85371.41
2023-09-20T23:08:56.477Z,85369.84
2023-09-20T23:11:22.712Z,85374.16
2023-09-20T23:13:48.876Z,85366.50
2023-09-20T23:16:15.082Z,85371.75
2023-09-20T23:18:41.500Z,85364.72
2023-09-20T23:21:07.859Z,85368.53
2023-09-20T23:23:34.096Z,85360.44
2023-09-20T23:26:00.431Z,85363.47
2023-09-20T23:28:26.663Z,85354.94
2023-09-20T23:30:55.633Z,85349.50
2023-09-20T23:33:23.085Z,85349.28
2023-09-20T23:35:49.390Z,85343.34
2023-09-20T23:38:15.678Z,85343.13
2023-09-20T23:40:41.993Z,85344.31
2023-09-20T23:43:08.151Z,85355.09
2023-09-20T23:45:34.328Z,85350.75
2023-09-20T23:48:00.632Z,85355.25
2023-09-20T23:50:26.913Z,85354.63
2023-09-20T23:52:53.067Z,85358.00
2023-09-20T23:55:19.234Z,85348.66
2023-09-20T23:57:45.380Z,85343.84
